Loxahatchee, FL

2:48 PM EDT on March 26, 2017 (GMT -0400)
Orange Blvd | | Change Station

Elev 59 ft 26.68 °N, 80.26 °W | Updated 29 seconds ago

Partly Cloudy
Partly Cloudy
78.8 °F
Feels Like 80 °F
N
5.0
Wind Variable Wind from East

Today
High -- | Low -- °F
--% Chance of Precip.
Yesterday
High -- | Low -- °F
Precip. -- in
Pressure 30.12 in
Visibility 10.0 miles
Clouds Scattered Clouds 3300 ft
Heat Index 80 °F
Dew Point 62 °F
Humidity 56%
Rainfall 0.00 in
Snow Depth Not available.
7:18 AM 7:35 PM
Waning Crescent, 2% visible
METAR KPBI 261753Z 10014KT 10SM SCT033 26/16 A3012 RMK AO2 SLP198 T02610161 10261 20222 58012
Pressure 30.12 in
Visibility 10.0 miles
Clouds Scattered Clouds 3300 ft
Heat Index 80 °F
Dew Point 62 °F
Humidity 56%
Rainfall 0.00 in
Snow Depth Not available.
7:18 AM 7:35 PM
Waning Crescent, 2% visible
METAR KPBI 261753Z 10014KT 10SM SCT033 26/16 A3012 RMK AO2 SLP198 T02610161 10261 20222 58012

Get Severe Weather Alerts

Thanks for signing up!

Be on the lookout for a verification email in your inbox.

You'll start receiving the daily forecast at 8 AM.

×

10-Day Weather Forecast

Almanac

Astronomy

Mar. 26, 2017 Rise Set
Actual Time
Civil Twilight
Nautical Twilight
Astronomical Twilight
Moon
Length of Visible Light
Length of Day
Tomorrow will be .
, % of the Moon is Illuminated

Today's Extremes

State Highs State Lows

Community

WunderPhotos

Upload Photos

1,962,540 photos uploaded!

WunderBlog® & News

Nearby

Air Quality

  Air Quality AQ Index Pollutant
Not available.

Snow Depth

Station Depth Elevation

Earthquake Activity

City Distance Mag. Time & Date
Minimum magnitude displayed is 2.5.

Earthquake Activity

City Distance Mag. Time & Date
Minimum magnitude displayed is 2.5.

Coastal Water Temperatures

Place Temperature

Stations

Nearby Weather Stations

Station Location Temp. Windchill Dew Point Humidity Wind Precip. Elev Updated Type
                   

Watches & Warnings

There are currently no watches in effect.